WEATHER DATA

YESTERDAY
Time Temp. Dewp. Hum. Wind dir Wind speed Wind gust Bar. 1h Prec. 24h Prec.
00:05 20 11 56 251 2.8 4.4 1003.4 0.0000 0.0000
00:15 19.8 11 57 251 2.5 4.2 1003.4 0.0000 0.0000
00:24 19.6 11.1 58 252 2.5 4.2 1003.5 0.0000 0.0000
00:35 19.4 11.2 59 247 2.2 3.9 1003.4 0.0000 0.0000
00:46 19.3 11.1 59 246 2.5 4.2 1003.4 0.0000 0.0000
00:56 19.1 10.9 59 249 2.8 4.4 1003.4 0.0000 0.0000
01:06 19 11.1 60 243 2.8 4.2 1003.3 0.0000 0.0000
01:16 18.9 11 60 243 2.8 4.4 1003.3 0.0000 0.0000
01:26 18.8 11.1 61 226 2.8 4.4 1003.5 0.0000 0.0000
01:36 18.7 11 61 187 2.8 4.2 1003.7 0.0000 0.0000
01:46 18.6 11.2 62 187 2.8 4.7 1003.7 0.0000 0.0000
01:56 18.6 10.9 61 241 3.1 4.4 1003.6 0.0000 0.0000
02:06 18.5 10.8 61 224 3.1 5 1003.8 0.0000 0.0000
02:16 18.4 11 62 233 2.8 5 1003.6 0.0000 0.0000
02:26 18.3 10.9 62 227 2.8 4.2 1003.6 0.0000 0.0000
02:37 18.3 10.9 62 225 2.5 3.9 1003.6 0.0000 0.0000
02:47 18.2 10.8 62 252 1.9 3.1 1003.7 0.0000 0.0000
02:56 18 10.9 63 277 1.7 4.2 1003.4 0.0000 0.0000
03:07 18 11.1 64 230 1.9 4.7 1003.3 0.0000 0.0000
03:17 17.9 10.8 63 221 3.3 5 1003.2 0.0000 0.0000
03:27 17.8 10.9 64 209 3.1 4.4 1003.2 0.0000 0.0000
03:37 17.6 10.7 64 212 2.8 4.2 1003.3 0.0000 0.0000
03:47 17.5 10.9 65 223 3.6 4.7 1003.2 0.0000 0.0000
03:57 17.4 11 66 214 3.1 4.4 1003.3 0.0000 0.0000
04:07 17.3 10.9 66 219 3.3 4.4 1003.3 0.0000 0.0000
04:18 17.2 10.8 66 208 3.1 4.2 1003.2 0.0000 0.0000
04:28 17.1 10.9 67 235 2.8 3.6 1003.1 0.0000 0.0000
04:37 17 10.8 67 232 2.5 3.6 1003.3 0.0000 0.0000
04:47 16.8 10.9 68 248 2.8 4.7 1003.3 0.0000 0.0000
04:58 16.7 10.8 68 252 3.1 5.3 1003.3 0.0000 0.0000
05:08 16.5 10.8 69 256 2.8 4.7 1003.3 0.0000 0.0000
05:18 16.4 10.7 69 267 3.3 5.3 1003.3 0.0000 0.0000
05:28 16.3 10.8 70 262 3.1 5.3 1003.2 0.0000 0.0000
05:38 16.3 10.8 70 274 3.1 5.3 1003.2 0.0000 0.0000
05:48 16.2 10.9 71 264 3.1 5 1003.3 0.0000 0.0000
05:58 16.2 10.9 71 263 3.6 5.8 1003.3 0.0000 0.0000
06:09 16.3 11 71 267 3.6 5.8 1003.2 0.0000 0.0000
06:18 16.4 11.1 71 273 4.2 7.2 1003.2 0.0000 0.0000
06:28 16.6 11.5 72 280 4.7 7.2 1003.3 0.0000 0.0000
06:38 16.8 11.5 71 275 4.2 6.7 1003.1 0.0000 0.0000
06:49 17.1 11.8 71 256 3.6 5.8 1003.2 0.0000 0.0000
06:59 17.3 12 71 253 3.9 5.8 1003 0.0000 0.0000
07:08 17.5 12 70 260 3.9 6.1 1002.9 0.0000 0.0000
07:19 17.8 12.3 70 253 3.9 5.8 1002.7 0.0000 0.0000
07:29 18.3 12.5 69 262 4.4 7.8 1002.7 0.0000 0.0000
07:39 18.7 12.7 68 272 5.3 6.7 1002.5 0.0000 0.0000
07:49 19 13 68 272 5 7.2 1002.4 0.0000 0.0000
07:59 19.2 13.2 68 272 5 6.9 1002.3 0.0000 0.0000
08:09 19.4 13.1 67 270 5 6.4 1002.4 0.0000 0.0000
08:19 19.6 13.1 66 270 5 6.7 1002.6 0.0000 0.0000
08:30 19.7 12.9 65 270 5 6.7 1002.6 0.0000 0.0000
08:40 19.9 13.1 65 272 5 6.7 1002.6 0.0000 0.0000
08:49 20 13.5 66 270 5 7.5 1002.5 0.0000 0.0000
08:59 20 13.2 65 275 5.6 7.2 1002.7 0.0000 0.0000
09:10 19.9 13.4 66 270 5.3 8.1 1002.7 0.0000 0.0000
09:20 19.9 13.4 66 277 5.6 7.8 1002.7 0.0000 0.0000
09:30 19.8 13.7 68 274 5.6 7.2 1002.9 0.0000 0.0000
09:40 19.5 13.4 68 285 6.1 9.7 1002.3 0.1760 0.2000
09:50 19.5 13.7 69 275 4.4 6.7 1002.3 0.1760 0.2000
10:00 19.4 13.8 70 278 5.6 7.5 1002.2 0.1760 0.2000
10:10 19.3 13.7 70 272 4.2 7.5 1002.2 0.1760 0.2000
10:20 19.1 13.7 71 270 3.9 6.1 1002.3 0.1760 0.2000
10:30 19.3 14.3 73 254 4.7 6.1 1002.4 0.1760 0.2000
10:40 19.3 13.9 71 268 4.7 7.5 1002.5 0.0000 0.2000
10:51 19.4 13.8 70 268 4.2 6.4 1002.6 0.0000 0.2000
11:01 19.3 14.1 72 268 4.4 6.9 1002.7 0.1760 0.4000
11:10 19.4 14.4 73 275 5.3 7.2 1002.8 0.3520 0.5000
11:17 19.3 14.3 73 274 4.7 6.9 1002.6 0.5280 0.7000
11:27 19.4 14.4 73 228 3.6 5.3 1002.8 1.0570 1.2000
11:38 19.3 14.3 73 232 2.8 3.9 1002.7 1.9390 2.1000
11:48 19.3 14.1 72 211 2.5 5.3 1002.5 2.9980 3.2000
11:57 19 14.1 73 258 2.5 3.9 1002.4 3.3510 3.7000
12:07 18.3 13.8 75 331 3.3 5 1002.3 3.1750 3.7000
12:18 17.9 13.8 77 305 3.3 5.6 1002.1 2.9990 3.7000
12:28 17.5 13.8 79 298 3.6 5.6 1002.4 1.7640 3.7000
12:38 17.1 13.4 79 299 3.6 5.6 1002.7 1.5880 3.7000
12:48 17 13.7 81 305 3.6 5.6 1002.4 0.5290 3.7000
12:58 16.9 14 83 303 3.1 5.6 1002.3 0.0000 3.7000
13:07 16.7 13.8 83 305 3.9 6.1 1001.9 0.0000 3.7000
13:18 16.5 13.8 84 308 3.9 6.4 1001.9 0.0000 3.7000
13:29 16.5 13.8 84 314 3.9 6.4 1001.9 0.0000 3.7000
13:38 16.5 13.8 84 315 3.6 5.8 1001.7 0.0000 3.7000
13:48 16.5 14 85 311 3.3 5.8 1001.9 0.0000 3.7000
13:59 16.4 13.9 85 316 4.2 6.1 1001.9 0.0000 3.7000
14:09 16.4 13.9 85 315 3.3 6.1 1001.9 0.0000 3.7000
14:19 16.5 14 85 315 3.6 5.8 1001.9 0.0000 3.7000
14:29 16.5 14 85 312 3.3 6.1 1001.9 0.0000 3.7000
14:39 16.3 13.8 85 306 4.4 6.7 1001.8 0.0000 3.7000
14:49 16.3 14 86 300 4.2 8.6 1001.8 0.0000 3.7000
14:59 16.3 14 86 315 4.2 6.7 1001.9 0.0000 3.7000
15:09 16.4 14.1 86 306 2.8 4.7 1002 0.0000 3.7000
15:20 16.4 14.1 86 300 4.2 7.2 1002 0.0000 3.7000
15:29 16.5 14.2 86 307 3.1 5.6 1002.1 0.0000 3.7000
15:39 16.4 13.9 85 305 4.2 6.7 1002.1 0.0000 3.7000
15:50 16.4 13.9 85 305 3.3 6.4 1002.1 0.0000 3.7000
16:00 16.5 14.2 86 296 2.8 4.4 1002.2 0.0000 3.7000
16:10 16.6 14.1 85 318 3.3 4.7 1002 0.0000 3.7000
16:19 16.7 14.2 85 305 3.1 5.6 1001.9 0.0000 3.7000
16:30 16.6 14.3 86 301 3.1 4.7 1002 0.0000 3.7000
16:40 16.7 14.3 86 307 3.3 5.8 1001.9 0.0000 3.7000
16:50 16.6 14.3 86 295 3.3 5.8 1002 0.0000 3.7000
17:00 16.5 14.3 87 298 4.2 7.2 1002.2 0.0000 3.7000
17:11 16.4 14.2 87 297 3.9 6.1 1002.1 0.1760 3.9000
17:20 16.3 14.1 87 300 3.6 6.1 1002 0.1760 3.9000
17:30 16.3 14.1 87 294 3.3 5.8 1002 0.1760 3.9000
17:41 16.3 14.3 88 288 2.8 5.3 1002.1 0.1760 3.9000
17:51 16.4 14.4 88 298 3.1 5.8 1001.8 0.1760 3.9000
18:01 16.4 14.4 88 293 2.8 5.6 1001.8 0.1760 3.9000
18:11 16.4 14.4 88 304 4.2 7.5 1001.9 0.0000 3.9000
18:21 16.3 14.3 88 297 3.3 6.1 1001.5 0.0000 3.9000
18:31 16.4 14.4 88 296 3.3 5.8 1001.7 0.0000 3.9000
18:41 16.5 14.3 87 293 2.5 4.4 1001.9 0.0000 3.9000
18:52 16.8 14.8 88 278 2.5 4.4 1002 0.0000 3.9000
19:01 16.7 14.3 86 304 4.2 6.7 1002 0.0000 3.9000
19:11 16.5 14 85 289 2.5 4.4 1002.1 0.0000 3.9000
19:21 16.8 14.3 85 279 2.2 3.9 1002.1 0.0000 3.9000
19:32 16.8 14.3 85 282 2.5 4.2 1002 0.0000 3.9000
19:42 16.9 14.4 85 282 2.5 5.3 1001.8 0.0000 3.9000
20:02 16.9 14.5 86 276 2.8 4.7 1002 0.0000 3.9000
20:12 16.9 14.5 86 280 3.1 5 1002 0.0000 3.9000
20:22 16.8 14.4 86 281 3.3 5.3 1002 0.0000 3.9000
20:32 16.7 14.5 87 283 3.1 5.6 1001.9 0.0000 3.9000
20:42 16.8 14.4 86 265 2.2 3.3 1002.2 0.0000 3.9000
20:52 16.6 14.3 86 252 1.9 3.6 1002.3 0.0000 3.9000
21:02 16.5 14.2 86 244 1.9 3.1 1002.2 0.0000 3.9000
21:13 16.4 14.1 86 245 1.9 3.3 1002.4 0.0000 3.9000
21:23 16.4 14.2 87 234 1.7 2.8 1002.4 0.0000 3.9000
21:33 16.2 13.9 86 242 1.7 3.1 1002.3 0.0000 3.9000
21:42 16.1 13.8 86 235 1.9 3.6 1002.3 0.0000 3.9000
21:53 16 13.8 87 243 1.9 3.6 1002.3 0.0000 3.9000
22:03 15.9 13.7 87 256 1.9 3.6 1002.6 0.0000 3.9000
22:13 15.8 13.6 87 262 2.2 4.2 1002.5 0.0000 3.9000
22:23 15.8 13.8 88 256 2.2 5 1002.6 0.0000 3.9000
22:33 15.8 13.8 88 255 1.9 3.6 1002.5 0.0000 3.9000
22:43 15.8 13.8 88 254 1.9 3.6 1002.5 0.0000 3.9000
22:53 15.7 13.7 88 261 2.2 3.9 1002.6 0.0000 3.9000
23:04 15.7 13.7 88 255 1.9 3.3 1002.6 0.0000 3.9000
23:14 15.6 13.6 88 250 2.2 3.9 1002.6 0.0000 3.9000
23:23 15.5 13.5 88 257 2.2 4.4 1002.6 0.0000 3.9000
23:34 15.5 13.7 89 254 1.9 3.9 1002.5 0.0000 3.9000
23:44 15.4 13.4 88 241 1.7 4.2 1002.4 0.0000 3.9000
23:54 15.3 13.3 88 247 1.7 3.1 1002.5 0.0000

DAY STATISTIC

2021-08-01
TEMPERATURE
AVERAGE
17.4
HIGH
20.0
00:05
LOW
15.3
23:54
PRESSURE
AVERAGE
1002.6
HIGH
1003.8
02:06
LOW
1001.5
18:21
DEWPOINT
AVERAGE
13.0
HIGH
14.8
18:52
LOW
10.7
03:37
HUMIDITY
AVERAGE
76
HIGH
89
23:34
LOW
56
00:05
WIND SPEED
AVERAGE
3.3
HIGH
6.1
09:40
WIND GUST
AVERAGE
5.4
HIGH
9.7
09:40
WIND DIRECTION
PREVAILING
W
48.6%
N
0.0
NE
0.0
E
0.0
SE
0.0
S
1.4
SW
21.8
W
48.6
NW
28.2
PRECIPITATION
RAIN HOUR
3.4
RAIN DAY
3.9
TEMPERATURE (°C)
LOW
15.3
HIGH
20.0
AVERAGE
17.4
PRESSURE (hpa)
LOW
1001.5
HIGH
1003.8
AVERAGE
1002.6
DEVICE